Owasa, Iowa
Current Conditions -  °F | °C
As of 3:15 PM on Saturday 22 Nov 2014 (Local Time) from KIFA Reporting Station
Clear Clear  
Wind Chill: 51°   Ceiling: Unl
Heat Index: 51°   Visibility: 10mi
Dew Point: 43°   Wind: 15mph
Humidity: 73%   Direction: 200°SSW
Pressure: 29.7"   Gusts: 18mph
Location:  42.4829°N, 93.2802°W
Report Text: KIFA 222115Z AUTO 20013G16KT 10SM CLR 11/06 A2970 RMK AO2 T01050059
Loading
Personal Weather Stations






























Interactive Weather Map New forecast layout! Learn more

10-Day Weather Forecast

Advertisements
Track Severe Weather on mobile